sensor_id;sensor_type;location;lat;lon;timestamp;temperature;humidity
18384;DHT22;9318;48.644;9.456;2023-03-11T00:00:27;3.80;99.90
18384;DHT22;9318;48.644;9.456;2023-03-11T00:02:56;3.80;99.90
18384;DHT22;9318;48.644;9.456;2023-03-11T00:05:24;3.70;99.90
18384;DHT22;9318;48.644;9.456;2023-03-11T00:07:52;3.70;99.90
18384;DHT22;9318;48.644;9.456;2023-03-11T00:10:24;3.70;99.90
18384;DHT22;9318;48.644;9.456;2023-03-11T00:12:51;3.60;99.90
18384;DHT22;9318;48.644;9.456;2023-03-11T00:15:18;3.70;99.90
18384;DHT22;9318;48.644;9.456;2023-03-11T00:17:46;3.70;99.90
18384;DHT22;9318;48.644;9.456;2023-03-11T00:20:18;3.70;99.90
18384;DHT22;9318;48.644;9.456;2023-03-11T00:22:45;3.70;99.90
18384;DHT22;9318;48.644;9.456;2023-03-11T00:25:13;3.60;99.90
18384;DHT22;9318;48.644;9.456;2023-03-11T00:27:41;3.50;99.90
18384;DHT22;9318;48.644;9.456;2023-03-11T00:30:10;3.50;99.90
18384;DHT22;9318;48.644;9.456;2023-03-11T00:32:37;3.50;99.90
18384;DHT22;9318;48.644;9.456;2023-03-11T00:35:05;3.50;99.90
18384;DHT22;9318;48.644;9.456;2023-03-11T00:37:33;3.50;99.90
18384;DHT22;9318;48.644;9.456;2023-03-11T00:40:00;3.40;99.90
18384;DHT22;9318;48.644;9.456;2023-03-11T00:42:27;3.30;99.90
18384;DHT22;9318;48.644;9.456;2023-03-11T00:44:55;3.30;99.90
18384;DHT22;9318;48.644;9.456;2023-03-11T00:47:22;3.30;99.90
18384;DHT22;9318;48.644;9.456;2023-03-11T00:49:48;3.20;99.90
18384;DHT22;9318;48.644;9.456;2023-03-11T00:52:15;3.30;99.90
18384;DHT22;9318;48.644;9.456;2023-03-11T00:54:42;3.30;99.90
18384;DHT22;9318;48.644;9.456;2023-03-11T00:57:10;3.20;99.90
18384;DHT22;9318;48.644;9.456;2023-03-11T00:59:37;3.20;99.90
18384;DHT22;9318;48.644;9.456;2023-03-11T01:02:05;3.20;99.90
18384;DHT22;9318;48.644;9.456;2023-03-11T01:04:32;3.20;99.90
18384;DHT22;9318;48.644;9.456;2023-03-11T01:06:58;3.20;99.90
18384;DHT22;9318;48.644;9.456;2023-03-11T01:09:25;3.20;99.90
18384;DHT22;9318;48.644;9.456;2023-03-11T01:11:52;3.20;99.90
18384;DHT22;9318;48.644;9.456;2023-03-11T01:14:19;3.10;99.90
18384;DHT22;9318;48.644;9.456;2023-03-11T01:16:46;3.20;99.90
18384;DHT22;9318;48.644;9.456;2023-03-11T01:19:14;3.20;99.90
18384;DHT22;9318;48.644;9.456;2023-03-11T01:21:41;3.10;99.90
18384;DHT22;9318;48.644;9.456;2023-03-11T01:24:08;3.10;99.90
18384;DHT22;9318;48.644;9.456;2023-03-11T01:26:35;3.20;99.90
18384;DHT22;9318;48.644;9.456;2023-03-11T01:29:02;3.20;99.90
18384;DHT22;9318;48.644;9.456;2023-03-11T01:31:28;3.20;99.90
18384;DHT22;9318;48.644;9.456;2023-03-11T01:33:55;3.10;99.90
18384;DHT22;9318;48.644;9.456;2023-03-11T01:36:23;3.10;99.90
18384;DHT22;9318;48.644;9.456;2023-03-11T01:38:50;2.90;99.90
18384;DHT22;9318;48.644;9.456;2023-03-11T01:41:17;2.90;99.90
18384;DHT22;9318;48.644;9.456;2023-03-11T01:43:49;2.90;99.90
18384;DHT22;9318;48.644;9.456;2023-03-11T01:46:20;2.90;99.90
18384;DHT22;9318;48.644;9.456;2023-03-11T01:48:48;2.80;99.90
18384;DHT22;9318;48.644;9.456;2023-03-11T01:51:19;2.90;99.90
18384;DHT22;9318;48.644;9.456;2023-03-11T01:53:50;2.80;99.90
18384;DHT22;9318;48.644;9.456;2023-03-11T01:56:18;2.80;99.90
18384;DHT22;9318;48.644;9.456;2023-03-11T01:58:48;2.80;99.90
18384;DHT22;9318;48.644;9.456;2023-03-11T02:01:17;2.70;99.90
18384;DHT22;9318;48.644;9.456;2023-03-11T02:03:44;2.60;99.90
18384;DHT22;9318;48.644;9.456;2023-03-11T02:06:14;2.60;99.90
18384;DHT22;9318;48.644;9.456;2023-03-11T02:08:42;2.50;99.90
18384;DHT22;9318;48.644;9.456;2023-03-11T02:11:14;2.50;99.90
18384;DHT22;9318;48.644;9.456;2023-03-11T02:13:42;2.50;99.90
18384;DHT22;9318;48.644;9.456;2023-03-11T02:16:10;2.50;99.90
18384;DHT22;9318;48.644;9.456;2023-03-11T02:18:38;2.40;99.90
18384;DHT22;9318;48.644;9.456;2023-03-11T02:21:12;2.40;99.90
18384;DHT22;9318;48.644;9.456;2023-03-11T02:23:46;2.40;99.90
18384;DHT22;9318;48.644;9.456;2023-03-11T02:26:21;2.40;99.90
18384;DHT22;9318;48.644;9.456;2023-03-11T02:28:50;2.40;99.90
18384;DHT22;9318;48.644;9.456;2023-03-11T02:31:18;2.40;99.90
18384;DHT22;9318;48.644;9.456;2023-03-11T02:33:48;2.40;99.90
18384;DHT22;9318;48.644;9.456;2023-03-11T02:36:36;2.50;99.90
18384;DHT22;9318;48.644;9.456;2023-03-11T02:39:04;2.40;99.90
18384;DHT22;9318;48.644;9.456;2023-03-11T02:41:33;2.40;99.90
18384;DHT22;9318;48.644;9.456;2023-03-11T02:44:02;2.40;99.90
18384;DHT22;9318;48.644;9.456;2023-03-11T02:46:30;2.40;99.90
18384;DHT22;9318;48.644;9.456;2023-03-11T02:48:59;2.40;99.90
18384;DHT22;9318;48.644;9.456;2023-03-11T02:51:25;2.40;99.90
18384;DHT22;9318;48.644;9.456;2023-03-11T02:53:55;2.30;99.90
18384;DHT22;9318;48.644;9.456;2023-03-11T02:56:23;2.40;99.90
18384;DHT22;9318;48.644;9.456;2023-03-11T02:58:50;2.20;99.90
18384;DHT22;9318;48.644;9.456;2023-03-11T03:01:18;2.10;99.90
18384;DHT22;9318;48.644;9.456;2023-03-11T03:03:44;2.00;99.90
18384;DHT22;9318;48.644;9.456;2023-03-11T03:06:11;2.00;99.90
18384;DHT22;9318;48.644;9.456;2023-03-11T03:08:38;1.90;99.90
18384;DHT22;9318;48.644;9.456;2023-03-11T03:11:05;1.80;99.90
18384;DHT22;9318;48.644;9.456;2023-03-11T03:13:32;1.70;99.90
18384;DHT22;9318;48.644;9.456;2023-03-11T03:15:59;1.60;99.90
18384;DHT22;9318;48.644;9.456;2023-03-11T03:18:27;1.60;99.90
18384;DHT22;9318;48.644;9.456;2023-03-11T03:20:54;1.60;99.90
18384;DHT22;9318;48.644;9.456;2023-03-11T03:23:21;1.50;99.90
18384;DHT22;9318;48.644;9.456;2023-03-11T03:25:48;1.50;99.90
18384;DHT22;9318;48.644;9.456;2023-03-11T03:28:15;1.50;99.90
18384;DHT22;9318;48.644;9.456;2023-03-11T03:30:42;1.40;99.90
18384;DHT22;9318;48.644;9.456;2023-03-11T03:33:09;1.30;99.90
18384;DHT22;9318;48.644;9.456;2023-03-11T03:35:40;1.30;99.90
18384;DHT22;9318;48.644;9.456;2023-03-11T03:38:07;1.20;99.90
18384;DHT22;9318;48.644;9.456;2023-03-11T03:40:34;1.20;99.90
18384;DHT22;9318;48.644;9.456;2023-03-11T03:43:01;1.10;99.90
18384;DHT22;9318;48.644;9.456;2023-03-11T03:45:27;1.00;99.90
18384;DHT22;9318;48.644;9.456;2023-03-11T03:47:54;0.90;99.90
18384;DHT22;9318;48.644;9.456;2023-03-11T03:50:21;0.90;99.90
18384;DHT22;9318;48.644;9.456;2023-03-11T03:52:49;0.80;99.90
18384;DHT22;9318;48.644;9.456;2023-03-11T03:55:16;0.80;99.90
18384;DHT22;9318;48.644;9.456;2023-03-11T03:57:43;0.70;99.90
18384;DHT22;9318;48.644;9.456;2023-03-11T04:00:11;0.70;99.90
18384;DHT22;9318;48.644;9.456;2023-03-11T04:02:37;0.70;99.90
18384;DHT22;9318;48.644;9.456;2023-03-11T04:05:05;0.70;99.90
18384;DHT22;9318;48.644;9.456;2023-03-11T04:07:32;0.70;99.90
18384;DHT22;9318;48.644;9.456;2023-03-11T04:10:01;0.70;99.90
18384;DHT22;9318;48.644;9.456;2023-03-11T04:12:28;0.80;99.90
18384;DHT22;9318;48.644;9.456;2023-03-11T04:14:55;0.80;99.90
18384;DHT22;9318;48.644;9.456;2023-03-11T04:17:22;0.90;99.90
18384;DHT22;9318;48.644;9.456;2023-03-11T04:19:48;0.90;99.90
18384;DHT22;9318;48.644;9.456;2023-03-11T04:22:15;0.90;99.90
18384;DHT22;9318;48.644;9.456;2023-03-11T04:24:42;1.00;99.90
18384;DHT22;9318;48.644;9.456;2023-03-11T04:27:10;1.00;99.90
18384;DHT22;9318;48.644;9.456;2023-03-11T04:29:37;1.00;99.90
18384;DHT22;9318;48.644;9.456;2023-03-11T04:32:04;1.00;99.90
18384;DHT22;9318;48.644;9.456;2023-03-11T04:34:31;1.00;99.90
18384;DHT22;9318;48.644;9.456;2023-03-11T04:36:58;1.00;99.90
18384;DHT22;9318;48.644;9.456;2023-03-11T04:39:24;0.90;99.90
18384;DHT22;9318;48.644;9.456;2023-03-11T04:41:51;0.90;99.90
18384;DHT22;9318;48.644;9.456;2023-03-11T04:44:19;0.90;99.90
18384;DHT22;9318;48.644;9.456;2023-03-11T04:46:46;0.80;99.90
18384;DHT22;9318;48.644;9.456;2023-03-11T04:49:13;0.80;99.90
18384;DHT22;9318;48.644;9.456;2023-03-11T04:51:41;0.80;99.90
18384;DHT22;9318;48.644;9.456;2023-03-11T04:54:08;0.70;99.90
18384;DHT22;9318;48.644;9.456;2023-03-11T04:56:35;0.60;99.90
18384;DHT22;9318;48.644;9.456;2023-03-11T04:59:01;0.60;99.90
18384;DHT22;9318;48.644;9.456;2023-03-11T05:01:29;0.50;99.90
18384;DHT22;9318;48.644;9.456;2023-03-11T05:03:56;0.50;99.90
18384;DHT22;9318;48.644;9.456;2023-03-11T05:06:23;0.50;99.90
18384;DHT22;9318;48.644;9.456;2023-03-11T05:08:50;0.50;99.90
18384;DHT22;9318;48.644;9.456;2023-03-11T05:11:16;0.50;99.90
18384;DHT22;9318;48.644;9.456;2023-03-11T05:13:43;0.50;99.90
18384;DHT22;9318;48.644;9.456;2023-03-11T05:16:10;0.60;99.90
18384;DHT22;9318;48.644;9.456;2023-03-11T05:18:38;0.60;99.90
18384;DHT22;9318;48.644;9.456;2023-03-11T05:21:05;0.50;99.90
18384;DHT22;9318;48.644;9.456;2023-03-11T05:23:32;0.60;99.90
18384;DHT22;9318;48.644;9.456;2023-03-11T05:25:58;0.60;99.90
18384;DHT22;9318;48.644;9.456;2023-03-11T05:28:25;0.60;99.90
18384;DHT22;9318;48.644;9.456;2023-03-11T05:30:52;0.60;99.90
18384;DHT22;9318;48.644;9.456;2023-03-11T05:33:19;0.60;99.90
18384;DHT22;9318;48.644;9.456;2023-03-11T05:35:47;0.60;99.90
18384;DHT22;9318;48.644;9.456;2023-03-11T05:38:16;0.50;99.90
18384;DHT22;9318;48.644;9.456;2023-03-11T05:40:43;0.50;99.90
18384;DHT22;9318;48.644;9.456;2023-03-11T05:43:10;0.40;99.90
18384;DHT22;9318;48.644;9.456;2023-03-11T05:45:36;0.40;99.90
18384;DHT22;9318;48.644;9.456;2023-03-11T05:48:03;0.30;99.90
18384;DHT22;9318;48.644;9.456;2023-03-11T05:50:30;0.30;99.90
18384;DHT22;9318;48.644;9.456;2023-03-11T05:52:58;0.30;99.90
18384;DHT22;9318;48.644;9.456;2023-03-11T05:55:25;0.30;99.90
18384;DHT22;9318;48.644;9.456;2023-03-11T05:57:52;0.30;99.90
18384;DHT22;9318;48.644;9.456;2023-03-11T06:00:19;0.30;99.90
18384;DHT22;9318;48.644;9.456;2023-03-11T06:02:46;0.30;99.90
18384;DHT22;9318;48.644;9.456;2023-03-11T06:05:13;0.20;99.90
18384;DHT22;9318;48.644;9.456;2023-03-11T06:07:40;0.30;99.90
18384;DHT22;9318;48.644;9.456;2023-03-11T06:10:09;0.30;99.90
18384;DHT22;9318;48.644;9.456;2023-03-11T06:12:36;0.30;99.90
18384;DHT22;9318;48.644;9.456;2023-03-11T06:15:04;0.40;99.90
18384;DHT22;9318;48.644;9.456;2023-03-11T06:17:31;0.60;99.90
18384;DHT22;9318;48.644;9.456;2023-03-11T06:19:58;0.70;99.90
18384;DHT22;9318;48.644;9.456;2023-03-11T06:22:25;0.90;99.90
18384;DHT22;9318;48.644;9.456;2023-03-11T06:24:52;1.10;99.90
18384;DHT22;9318;48.644;9.456;2023-03-11T06:27:20;1.30;99.90
18384;DHT22;9318;48.644;9.456;2023-03-11T06:29:51;1.40;99.90
18384;DHT22;9318;48.644;9.456;2023-03-11T06:32:18;1.60;99.90
18384;DHT22;9318;48.644;9.456;2023-03-11T06:34:49;1.60;99.90
18384;DHT22;9318;48.644;9.456;2023-03-11T06:37:16;1.70;99.90
18384;DHT22;9318;48.644;9.456;2023-03-11T06:39:42;1.70;99.90
18384;DHT22;9318;48.644;9.456;2023-03-11T06:42:09;1.70;99.90
18384;DHT22;9318;48.644;9.456;2023-03-11T06:44:38;1.70;99.90
18384;DHT22;9318;48.644;9.456;2023-03-11T06:47:05;1.70;99.90
18384;DHT22;9318;48.644;9.456;2023-03-11T06:49:32;1.70;99.90
18384;DHT22;9318;48.644;9.456;2023-03-11T06:51:58;1.80;99.90
18384;DHT22;9318;48.644;9.456;2023-03-11T06:54:25;1.90;99.90
18384;DHT22;9318;48.644;9.456;2023-03-11T06:56:52;2.20;99.90
18384;DHT22;9318;48.644;9.456;2023-03-11T06:59:19;2.70;99.90
18384;DHT22;9318;48.644;9.456;2023-03-11T07:01:48;3.00;99.90
18384;DHT22;9318;48.644;9.456;2023-03-11T07:04:15;3.80;99.90
18384;DHT22;9318;48.644;9.456;2023-03-11T07:06:42;4.70;99.90
18384;DHT22;9318;48.644;9.456;2023-03-11T07:09:09;5.10;99.90
18384;DHT22;9318;48.644;9.456;2023-03-11T07:11:36;5.10;99.90
18384;DHT22;9318;48.644;9.456;2023-03-11T07:14:02;4.80;99.90
18384;DHT22;9318;48.644;9.456;2023-03-11T07:16:30;4.50;99.90
18384;DHT22;9318;48.644;9.456;2023-03-11T07:18:59;4.30;99.90
18384;DHT22;9318;48.644;9.456;2023-03-11T07:21:28;4.20;99.90
18384;DHT22;9318;48.644;9.456;2023-03-11T07:23:58;4.00;99.90
18384;DHT22;9318;48.644;9.456;2023-03-11T07:26:26;4.10;99.90
18384;DHT22;9318;48.644;9.456;2023-03-11T07:28:53;5.40;99.90
18384;DHT22;9318;48.644;9.456;2023-03-11T07:31:22;7.10;99.90
18384;DHT22;9318;48.644;9.456;2023-03-11T07:33:50;8.70;99.90
18384;DHT22;9318;48.644;9.456;2023-03-11T07:36:19;10.40;99.90
18384;DHT22;9318;48.644;9.456;2023-03-11T07:38:47;11.50;99.90
18384;DHT22;9318;48.644;9.456;2023-03-11T07:41:14;12.70;98.20
18384;DHT22;9318;48.644;9.456;2023-03-11T07:43:42;13.10;95.90
18384;DHT22;9318;48.644;9.456;2023-03-11T07:46:11;13.80;94.50
18384;DHT22;9318;48.644;9.456;2023-03-11T07:48:39;15.10;91.70
18384;DHT22;9318;48.644;9.456;2023-03-11T07:51:08;16.70;86.90
18384;DHT22;9318;48.644;9.456;2023-03-11T07:53:36;16.70;82.90
18384;DHT22;9318;48.644;9.456;2023-03-11T07:56:06;17.40;78.50
18384;DHT22;9318;48.644;9.456;2023-03-11T07:58:33;18.10;75.10
18384;DHT22;9318;48.644;9.456;2023-03-11T08:01:02;18.60;72.50
18384;DHT22;9318;48.644;9.456;2023-03-11T08:03:29;19.20;68.70
18384;DHT22;9318;48.644;9.456;2023-03-11T08:05:56;18.50;67.60
18384;DHT22;9318;48.644;9.456;2023-03-11T08:08:23;17.60;69.60
18384;DHT22;9318;48.644;9.456;2023-03-11T08:10:51;17.80;68.90
18384;DHT22;9318;48.644;9.456;2023-03-11T08:13:18;16.70;69.60
18384;DHT22;9318;48.644;9.456;2023-03-11T08:15:45;15.50;70.60
18384;DHT22;9318;48.644;9.456;2023-03-11T08:18:12;14.40;73.60
18384;DHT22;9318;48.644;9.456;2023-03-11T08:20:41;12.40;77.90
18384;DHT22;9318;48.644;9.456;2023-03-11T08:23:09;11.30;80.70
18384;DHT22;9318;48.644;9.456;2023-03-11T08:25:37;9.90;85.10
18384;DHT22;9318;48.644;9.456;2023-03-11T08:28:06;8.80;90.50
18384;DHT22;9318;48.644;9.456;2023-03-11T08:30:33;7.50;90.80
18384;DHT22;9318;48.644;9.456;2023-03-11T08:33:00;7.10;92.90
18384;DHT22;9318;48.644;9.456;2023-03-11T08:35:27;7.60;93.50
18384;DHT22;9318;48.644;9.456;2023-03-11T08:37:54;8.80;92.80
18384;DHT22;9318;48.644;9.456;2023-03-11T08:40:21;10.00;90.50
18384;DHT22;9318;48.644;9.456;2023-03-11T08:42:47;9.90;91.00
18384;DHT22;9318;48.644;9.456;2023-03-11T08:45:16;9.60;91.40
18384;DHT22;9318;48.644;9.456;2023-03-11T08:47:42;9.00;91.30
18384;DHT22;9318;48.644;9.456;2023-03-11T08:50:12;8.30;91.90
18384;DHT22;9318;48.644;9.456;2023-03-11T08:52:41;7.20;93.50
18384;DHT22;9318;48.644;9.456;2023-03-11T08:55:09;6.90;93.90
18384;DHT22;9318;48.644;9.456;2023-03-11T08:57:37;6.80;95.00
18384;DHT22;9318;48.644;9.456;2023-03-11T09:00:06;9.50;94.70
18384;DHT22;9318;48.644;9.456;2023-03-11T09:02:35;13.40;90.00
18384;DHT22;9318;48.644;9.456;2023-03-11T09:05:02;16.90;79.80
18384;DHT22;9318;48.644;9.456;2023-03-11T09:07:28;17.50;73.00
18384;DHT22;9318;48.644;9.456;2023-03-11T09:09:55;18.10;70.50
18384;DHT22;9318;48.644;9.456;2023-03-11T09:12:22;18.20;69.20
18384;DHT22;9318;48.644;9.456;2023-03-11T09:14:49;17.10;69.50
18384;DHT22;9318;48.644;9.456;2023-03-11T09:17:15;15.00;72.40
18384;DHT22;9318;48.644;9.456;2023-03-11T09:19:43;13.70;76.00
18384;DHT22;9318;48.644;9.456;2023-03-11T09:22:11;14.40;77.70
18384;DHT22;9318;48.644;9.456;2023-03-11T09:24:37;13.40;74.20
18384;DHT22;9318;48.644;9.456;2023-03-11T09:27:04;12.40;80.20
18384;DHT22;9318;48.644;9.456;2023-03-11T09:29:31;11.80;80.60
18384;DHT22;9318;48.644;9.456;2023-03-11T09:31:58;11.00;84.50
18384;DHT22;9318;48.644;9.456;2023-03-11T09:34:25;11.40;84.00
18384;DHT22;9318;48.644;9.456;2023-03-11T09:36:53;14.70;80.60
18384;DHT22;9318;48.644;9.456;2023-03-11T09:39:19;17.50;73.70
18384;DHT22;9318;48.644;9.456;2023-03-11T09:41:52;17.70;68.40
18384;DHT22;9318;48.644;9.456;2023-03-11T09:44:23;17.10;69.30
18384;DHT22;9318;48.644;9.456;2023-03-11T09:47:23;15.00;70.00
18384;DHT22;9318;48.644;9.456;2023-03-11T09:50:08;11.60;78.50
18384;DHT22;9318;48.644;9.456;2023-03-11T09:52:44;10.70;82.20
18384;DHT22;9318;48.644;9.456;2023-03-11T09:55:30;9.20;84.80
18384;DHT22;9318;48.644;9.456;2023-03-11T09:58:02;8.80;89.60
18384;DHT22;9318;48.644;9.456;2023-03-11T10:00:30;9.40;88.30
18384;DHT22;9318;48.644;9.456;2023-03-11T10:02:57;9.60;87.90
18384;DHT22;9318;48.644;9.456;2023-03-11T10:05:27;9.00;86.60
18384;DHT22;9318;48.644;9.456;2023-03-11T10:07:58;8.80;87.40
18384;DHT22;9318;48.644;9.456;2023-03-11T10:10:29;8.50;86.50
18384;DHT22;9318;48.644;9.456;2023-03-11T10:13:03;7.70;91.20
18384;DHT22;9318;48.644;9.456;2023-03-11T10:15:39;7.60;91.10
18384;DHT22;9318;48.644;9.456;2023-03-11T10:18:39;7.40;92.40
18384;DHT22;9318;48.644;9.456;2023-03-11T10:21:17;7.70;91.80
18384;DHT22;9318;48.644;9.456;2023-03-11T10:23:59;11.00;86.20
18384;DHT22;9318;48.644;9.456;2023-03-11T10:26:32;12.40;85.20
18384;DHT22;9318;48.644;9.456;2023-03-11T10:29:06;13.20;85.30
18384;DHT22;9318;48.644;9.456;2023-03-11T10:31:36;12.10;81.80
18384;DHT22;9318;48.644;9.456;2023-03-11T10:34:13;10.70;81.00
18384;DHT22;9318;48.644;9.456;2023-03-11T10:36:49;9.30;84.60
18384;DHT22;9318;48.644;9.456;2023-03-11T10:39:19;8.00;89.20
18384;DHT22;9318;48.644;9.456;2023-03-11T10:41:49;7.30;90.80
18384;DHT22;9318;48.644;9.456;2023-03-11T10:44:21;7.40;92.70
18384;DHT22;9318;48.644;9.456;2023-03-11T10:46:49;7.40;92.50
18384;DHT22;9318;48.644;9.456;2023-03-11T10:49:17;6.70;91.60
18384;DHT22;9318;48.644;9.456;2023-03-11T10:51:45;6.80;93.80
18384;DHT22;9318;48.644;9.456;2023-03-11T10:54:23;6.70;92.70
18384;DHT22;9318;48.644;9.456;2023-03-11T10:56:54;6.40;93.60
18384;DHT22;9318;48.644;9.456;2023-03-11T10:59:25;6.70;92.50
18384;DHT22;9318;48.644;9.456;2023-03-11T11:01:56;6.90;92.80
18384;DHT22;9318;48.644;9.456;2023-03-11T11:04:29;7.00;91.90
18384;DHT22;9318;48.644;9.456;2023-03-11T11:06:56;7.00;92.00
18384;DHT22;9318;48.644;9.456;2023-03-11T11:09:26;6.90;92.20
18384;DHT22;9318;48.644;9.456;2023-03-11T11:12:03;6.60;91.40
18384;DHT22;9318;48.644;9.456;2023-03-11T11:14:47;6.60;92.50
18384;DHT22;9318;48.644;9.456;2023-03-11T11:17:22;6.80;92.90
18384;DHT22;9318;48.644;9.456;2023-03-11T11:19:50;7.00;92.10
18384;DHT22;9318;48.644;9.456;2023-03-11T11:22:20;7.20;92.50
18384;DHT22;9318;48.644;9.456;2023-03-11T11:24:50;7.50;92.50
18384;DHT22;9318;48.644;9.456;2023-03-11T11:27:19;7.60;91.10
18384;DHT22;9318;48.644;9.456;2023-03-11T11:30:02;7.80;91.80
18384;DHT22;9318;48.644;9.456;2023-03-11T11:32:29;7.80;90.60
18384;DHT22;9318;48.644;9.456;2023-03-11T11:34:58;7.70;91.90
18384;DHT22;9318;48.644;9.456;2023-03-11T11:37:26;7.70;89.00
18384;DHT22;9318;48.644;9.456;2023-03-11T11:40:00;7.40;90.60
18384;DHT22;9318;48.644;9.456;2023-03-11T11:42:36;7.30;91.50
18384;DHT22;9318;48.644;9.456;2023-03-11T11:45:09;7.30;91.90
18384;DHT22;9318;48.644;9.456;2023-03-11T11:47:41;7.20;92.00
18384;DHT22;9318;48.644;9.456;2023-03-11T11:50:14;7.10;91.60
18384;DHT22;9318;48.644;9.456;2023-03-11T11:52:45;7.40;93.00
18384;DHT22;9318;48.644;9.456;2023-03-11T11:55:18;7.60;91.60
18384;DHT22;9318;48.644;9.456;2023-03-11T11:57:45;7.60;92.70
18384;DHT22;9318;48.644;9.456;2023-03-11T12:00:17;8.00;91.20
18384;DHT22;9318;48.644;9.456;2023-03-11T12:02:55;8.40;91.50
18384;DHT22;9318;48.644;9.456;2023-03-11T12:05:27;8.40;91.80
18384;DHT22;9318;48.644;9.456;2023-03-11T12:08:06;8.40;92.00
18384;DHT22;9318;48.644;9.456;2023-03-11T12:10:41;8.50;93.80
18384;DHT22;9318;48.644;9.456;2023-03-11T12:16:14;8.90;92.30
18384;DHT22;9318;48.644;9.456;2023-03-11T12:18:48;9.00;91.40
18384;DHT22;9318;48.644;9.456;2023-03-11T12:21:28;8.70;91.20
18384;DHT22;9318;48.644;9.456;2023-03-11T12:24:08;8.10;90.20
18384;DHT22;9318;48.644;9.456;2023-03-11T12:26:41;8.00;92.90
18384;DHT22;9318;48.644;9.456;2023-03-11T12:29:13;7.90;90.90
18384;DHT22;9318;48.644;9.456;2023-03-11T12:31:46;7.80;91.00
18384;DHT22;9318;48.644;9.456;2023-03-11T12:34:14;7.90;90.90
18384;DHT22;9318;48.644;9.456;2023-03-11T12:36:45;8.00;92.00
18384;DHT22;9318;48.644;9.456;2023-03-11T12:39:20;8.20;91.30
18384;DHT22;9318;48.644;9.456;2023-03-11T12:42:17;8.50;91.80
18384;DHT22;9318;48.644;9.456;2023-03-11T12:44:44;8.90;92.80
18384;DHT22;9318;48.644;9.456;2023-03-11T12:47:25;9.10;90.70
18384;DHT22;9318;48.644;9.456;2023-03-11T12:49:54;9.20;91.20
18384;DHT22;9318;48.644;9.456;2023-03-11T12:52:30;9.20;90.30
18384;DHT22;9318;48.644;9.456;2023-03-11T12:55:33;9.10;87.40
18384;DHT22;9318;48.644;9.456;2023-03-11T12:58:26;8.80;87.70
18384;DHT22;9318;48.644;9.456;2023-03-11T13:01:06;9.00;91.50
18384;DHT22;9318;48.644;9.456;2023-03-11T13:03:43;9.10;90.00
18384;DHT22;9318;48.644;9.456;2023-03-11T13:06:26;9.00;83.60
18384;DHT22;9318;48.644;9.456;2023-03-11T13:08:58;8.90;86.00
18384;DHT22;9318;48.644;9.456;2023-03-11T13:11:33;8.80;83.30
18384;DHT22;9318;48.644;9.456;2023-03-11T13:14:27;8.70;82.20
18384;DHT22;9318;48.644;9.456;2023-03-11T13:16:55;8.50;87.30
18384;DHT22;9318;48.644;9.456;2023-03-11T13:19:47;8.40;88.50
18384;DHT22;9318;48.644;9.456;2023-03-11T13:22:42;8.40;89.40
18384;DHT22;9318;48.644;9.456;2023-03-11T13:25:25;8.40;88.90
18384;DHT22;9318;48.644;9.456;2023-03-11T13:27:55;8.10;88.50
18384;DHT22;9318;48.644;9.456;2023-03-11T13:30:27;7.70;87.50
18384;DHT22;9318;48.644;9.456;2023-03-11T13:33:17;7.60;90.50
18384;DHT22;9318;48.644;9.456;2023-03-11T13:35:58;8.00;91.60
18384;DHT22;9318;48.644;9.456;2023-03-11T13:38:42;8.40;90.40
18384;DHT22;9318;48.644;9.456;2023-03-11T13:41:14;8.50;87.00
18384;DHT22;9318;48.644;9.456;2023-03-11T13:43:44;8.50;87.30
18384;DHT22;9318;48.644;9.456;2023-03-11T13:46:22;9.00;90.60
18384;DHT22;9318;48.644;9.456;2023-03-11T13:49:02;9.10;85.50
18384;DHT22;9318;48.644;9.456;2023-03-11T13:51:36;9.40;88.50
18384;DHT22;9318;48.644;9.456;2023-03-11T13:54:06;9.60;87.50
18384;DHT22;9318;48.644;9.456;2023-03-11T13:56:39;9.80;88.50
18384;DHT22;9318;48.644;9.456;2023-03-11T13:59:15;10.00;89.70
18384;DHT22;9318;48.644;9.456;2023-03-11T14:01:49;9.90;89.10
18384;DHT22;9318;48.644;9.456;2023-03-11T14:04:19;9.70;84.90
18384;DHT22;9318;48.644;9.456;2023-03-11T14:06:50;9.10;84.90
18384;DHT22;9318;48.644;9.456;2023-03-11T14:09:21;8.90;84.80
18384;DHT22;9318;48.644;9.456;2023-03-11T14:11:48;9.00;84.30
18384;DHT22;9318;48.644;9.456;2023-03-11T14:14:32;8.90;82.30
18384;DHT22;9318;48.644;9.456;2023-03-11T14:17:02;9.40;81.70
18384;DHT22;9318;48.644;9.456;2023-03-11T14:19:29;9.70;84.90
18384;DHT22;9318;48.644;9.456;2023-03-11T14:21:56;9.70;83.00
18384;DHT22;9318;48.644;9.456;2023-03-11T14:24:25;9.00;82.50
18384;DHT22;9318;48.644;9.456;2023-03-11T14:26:53;8.90;81.80
18384;DHT22;9318;48.644;9.456;2023-03-11T14:29:27;9.10;82.10
18384;DHT22;9318;48.644;9.456;2023-03-11T14:31:55;8.70;83.20
18384;DHT22;9318;48.644;9.456;2023-03-11T14:34:25;8.70;86.30
18384;DHT22;9318;48.644;9.456;2023-03-11T14:36:54;9.30;89.00
18384;DHT22;9318;48.644;9.456;2023-03-11T14:39:32;9.90;85.50
18384;DHT22;9318;48.644;9.456;2023-03-11T14:42:04;10.10;81.90
18384;DHT22;9318;48.644;9.456;2023-03-11T14:44:33;9.80;82.10
18384;DHT22;9318;48.644;9.456;2023-03-11T14:47:07;8.70;83.40
18384;DHT22;9318;48.644;9.456;2023-03-11T14:49:36;8.80;88.80
18384;DHT22;9318;48.644;9.456;2023-03-11T14:52:07;8.60;87.90
18384;DHT22;9318;48.644;9.456;2023-03-11T14:54:35;8.40;83.50
18384;DHT22;9318;48.644;9.456;2023-03-11T14:57:05;8.00;82.90
18384;DHT22;9318;48.644;9.456;2023-03-11T14:59:34;7.80;86.10
18384;DHT22;9318;48.644;9.456;2023-03-11T15:02:30;7.40;85.10
18384;DHT22;9318;48.644;9.456;2023-03-11T15:05:01;7.00;86.40
18384;DHT22;9318;48.644;9.456;2023-03-11T15:07:29;7.00;90.50
18384;DHT22;9318;48.644;9.456;2023-03-11T15:10:06;7.10;90.00
18384;DHT22;9318;48.644;9.456;2023-03-11T15:12:36;7.30;91.00
18384;DHT22;9318;48.644;9.456;2023-03-11T15:15:21;7.50;88.50
18384;DHT22;9318;48.644;9.456;2023-03-11T15:17:52;7.60;88.70
18384;DHT22;9318;48.644;9.456;2023-03-11T15:20:25;7.50;88.60
18384;DHT22;9318;48.644;9.456;2023-03-11T15:22:54;7.40;90.20
18384;DHT22;9318;48.644;9.456;2023-03-11T15:25:26;7.50;90.60
18384;DHT22;9318;48.644;9.456;2023-03-11T15:27:53;7.60;90.30
18384;DHT22;9318;48.644;9.456;2023-03-11T15:30:21;7.50;90.30
18384;DHT22;9318;48.644;9.456;2023-03-11T15:32:48;7.60;89.80
18384;DHT22;9318;48.644;9.456;2023-03-11T15:35:17;7.50;90.80
18384;DHT22;9318;48.644;9.456;2023-03-11T15:37:47;7.50;90.40
18384;DHT22;9318;48.644;9.456;2023-03-11T15:40:20;7.50;91.20
18384;DHT22;9318;48.644;9.456;2023-03-11T15:42:48;7.60;91.20
18384;DHT22;9318;48.644;9.456;2023-03-11T15:45:16;7.30;90.00
18384;DHT22;9318;48.644;9.456;2023-03-11T15:47:44;7.10;90.70
18384;DHT22;9318;48.644;9.456;2023-03-11T15:50:14;7.00;91.60
18384;DHT22;9318;48.644;9.456;2023-03-11T15:52:41;6.90;90.80
18384;DHT22;9318;48.644;9.456;2023-03-11T15:55:10;6.80;91.90
18384;DHT22;9318;48.644;9.456;2023-03-11T15:57:38;6.80;91.60
18384;DHT22;9318;48.644;9.456;2023-03-11T16:00:14;6.70;92.00
18384;DHT22;9318;48.644;9.456;2023-03-11T16:02:41;6.70;92.00
18384;DHT22;9318;48.644;9.456;2023-03-11T16:05:12;6.60;91.50
18384;DHT22;9318;48.644;9.456;2023-03-11T16:07:39;6.40;91.70
18384;DHT22;9318;48.644;9.456;2023-03-11T16:10:06;6.30;92.60
18384;DHT22;9318;48.644;9.456;2023-03-11T16:12:35;6.20;91.70
18384;DHT22;9318;48.644;9.456;2023-03-11T16:15:02;6.10;92.50
18384;DHT22;9318;48.644;9.456;2023-03-11T16:17:29;6.10;93.00
18384;DHT22;9318;48.644;9.456;2023-03-11T16:19:56;6.00;92.30